sensor_id;sensor_type;location;lat;lon;timestamp;temperature;humidity
75022;SHT31;63583;49.976;20.182;2022-12-05T00:02:22;-0.09;99.99
75022;SHT31;63583;49.976;20.182;2022-12-05T00:04:47;0.01;99.99
75022;SHT31;63583;49.976;20.182;2022-12-05T00:07:13;0.01;99.99
75022;SHT31;63583;49.976;20.182;2022-12-05T00:09:39;0.04;99.99
75022;SHT31;63583;49.976;20.182;2022-12-05T00:12:05;0.01;99.99
75022;SHT31;63583;49.976;20.182;2022-12-05T00:14:31;0.01;99.73
75022;SHT31;63583;49.976;20.182;2022-12-05T00:16:56;0.01;99.91
75022;SHT31;63583;49.976;20.182;2022-12-05T00:19:22;-0.02;99.87
75022;SHT31;63583;49.976;20.182;2022-12-05T00:21:48;0.09;99.99
75022;SHT31;63583;49.976;20.182;2022-12-05T00:24:15;0.09;99.82
75022;SHT31;63583;49.976;20.182;2022-12-05T00:26:41;0.11;99.88
75022;SHT31;63583;49.976;20.182;2022-12-05T00:29:07;0.05;99.74
75022;SHT31;63583;49.976;20.182;2022-12-05T00:31:33;0.04;99.69
75022;SHT31;63583;49.976;20.182;2022-12-05T00:34:00;0.11;99.44
75022;SHT31;63583;49.976;20.182;2022-12-05T00:36:29;0.09;99.45
75022;SHT31;63583;49.976;20.182;2022-12-05T00:38:57;0.08;99.36
75022;SHT31;63583;49.976;20.182;2022-12-05T00:41:25;0.07;99.48
75022;SHT31;63583;49.976;20.182;2022-12-05T00:43:52;0.07;99.40
75022;SHT31;63583;49.976;20.182;2022-12-05T00:46:23;0.09;99.29
75022;SHT31;63583;49.976;20.182;2022-12-05T00:48:51;0.05;99.18
75022;SHT31;63583;49.976;20.182;2022-12-05T00:51:22;0.05;99.44
75022;SHT31;63583;49.976;20.182;2022-12-05T00:53:49;0.05;99.53
75022;SHT31;63583;49.976;20.182;2022-12-05T00:56:20;0.09;99.66
75022;SHT31;63583;49.976;20.182;2022-12-05T00:58:46;0.07;99.57
75022;SHT31;63583;49.976;20.182;2022-12-05T01:01:17;0.18;99.52
75022;SHT31;63583;49.976;20.182;2022-12-05T01:03:44;0.09;98.82
75022;SHT31;63583;49.976;20.182;2022-12-05T01:06:11;0.14;99.27
75022;SHT31;63583;49.976;20.182;2022-12-05T01:08:37;0.05;99.25
75022;SHT31;63583;49.976;20.182;2022-12-05T01:11:03;0.04;99.56
75022;SHT31;63583;49.976;20.182;2022-12-05T01:13:30;0.07;99.38
75022;SHT31;63583;49.976;20.182;2022-12-05T01:15:56;0.02;99.67
75022;SHT31;63583;49.976;20.182;2022-12-05T01:18:23;0.05;99.79
75022;SHT31;63583;49.976;20.182;2022-12-05T01:20:49;0.04;99.71
75022;SHT31;63583;49.976;20.182;2022-12-05T01:23:15;0.02;99.88
75022;SHT31;63583;49.976;20.182;2022-12-05T01:25:42;-0.03;99.70
75022;SHT31;63583;49.976;20.182;2022-12-05T01:28:09;-0.03;99.74
75022;SHT31;63583;49.976;20.182;2022-12-05T01:30:39;0.04;99.99
75022;SHT31;63583;49.976;20.182;2022-12-05T01:33:05;0.09;99.92
75022;SHT31;63583;49.976;20.182;2022-12-05T01:35:32;0.08;99.71
75022;SHT31;63583;49.976;20.182;2022-12-05T01:37:59;-0.01;99.82
75022;SHT31;63583;49.976;20.182;2022-12-05T01:40:24;-0.01;99.84
75022;SHT31;63583;49.976;20.182;2022-12-05T01:42:50;0.02;99.82
75022;SHT31;63583;49.976;20.182;2022-12-05T01:45:31;0.05;99.92
75022;SHT31;63583;49.976;20.182;2022-12-05T01:47:59;0.01;99.88
75022;SHT31;63583;49.976;20.182;2022-12-05T01:50:26;0.05;99.99
75022;SHT31;63583;49.976;20.182;2022-12-05T01:52:52;-0.02;99.92
75022;SHT31;63583;49.976;20.182;2022-12-05T01:55:18;0.08;99.99
75022;SHT31;63583;49.976;20.182;2022-12-05T01:57:46;0.07;99.90
75022;SHT31;63583;49.976;20.182;2022-12-05T02:00:17;0.04;99.99
75022;SHT31;63583;49.976;20.182;2022-12-05T02:02:48;0.18;99.99
75022;SHT31;63583;49.976;20.182;2022-12-05T02:05:27;0.12;99.95
75022;SHT31;63583;49.976;20.182;2022-12-05T02:07:54;0.11;99.99
75022;SHT31;63583;49.976;20.182;2022-12-05T02:10:21;0.08;99.99
75022;SHT31;63583;49.976;20.182;2022-12-05T02:12:48;0.12;99.99
75022;SHT31;63583;49.976;20.182;2022-12-05T02:15:31;0.16;99.99
75022;SHT31;63583;49.976;20.182;2022-12-05T02:24:01;0.18;99.95
75022;SHT31;63583;49.976;20.182;2022-12-05T02:32:10;0.04;99.99
75022;SHT31;63583;49.976;20.182;2022-12-05T02:34:58;0.08;99.99
75022;SHT31;63583;49.976;20.182;2022-12-05T02:37:39;0.09;99.99
75022;SHT31;63583;49.976;20.182;2022-12-05T02:40:18;0.15;99.99
75022;SHT31;63583;49.976;20.182;2022-12-05T02:42:55;0.09;99.99
75022;SHT31;63583;49.976;20.182;2022-12-05T02:45:23;0.15;99.99
75022;SHT31;63583;49.976;20.182;2022-12-05T02:47:52;0.16;99.99
75022;SHT31;63583;49.976;20.182;2022-12-05T02:50:26;0.22;99.99
75022;SHT31;63583;49.976;20.182;2022-12-05T02:52:55;0.25;99.99
75022;SHT31;63583;49.976;20.182;2022-12-05T02:55:23;0.16;99.99
75022;SHT31;63583;49.976;20.182;2022-12-05T02:57:53;0.16;99.99
75022;SHT31;63583;49.976;20.182;2022-12-05T03:00:21;0.19;99.99
75022;SHT31;63583;49.976;20.182;2022-12-05T03:02:47;0.15;99.99
75022;SHT31;63583;49.976;20.182;2022-12-05T03:05:31;0.07;99.99
75022;SHT31;63583;49.976;20.182;2022-12-05T03:08:01;0.16;99.99
75022;SHT31;63583;49.976;20.182;2022-12-05T03:10:30;0.14;99.99
75022;SHT31;63583;49.976;20.182;2022-12-05T03:13:05;0.05;99.99
75022;SHT31;63583;49.976;20.182;2022-12-05T03:15:36;0.12;99.99
75022;SHT31;63583;49.976;20.182;2022-12-05T03:18:11;0.11;99.99
75022;SHT31;63583;49.976;20.182;2022-12-05T03:20:58;0.08;99.99
75022;SHT31;63583;49.976;20.182;2022-12-05T03:23:30;0.07;99.99
75022;SHT31;63583;49.976;20.182;2022-12-05T03:28:40;0.07;99.99
75022;SHT31;63583;49.976;20.182;2022-12-05T03:31:10;0.09;99.99
75022;SHT31;63583;49.976;20.182;2022-12-05T03:33:43;0.16;99.99
75022;SHT31;63583;49.976;20.182;2022-12-05T03:36:21;0.15;99.99
75022;SHT31;63583;49.976;20.182;2022-12-05T03:39:02;0.16;99.99
75022;SHT31;63583;49.976;20.182;2022-12-05T03:41:40;0.18;99.99
75022;SHT31;63583;49.976;20.182;2022-12-05T03:46:53;0.18;99.99
75022;SHT31;63583;49.976;20.182;2022-12-05T03:52:06;0.18;99.99
75022;SHT31;63583;49.976;20.182;2022-12-05T03:54:41;0.25;99.99
75022;SHT31;63583;49.976;20.182;2022-12-05T03:57:34;0.18;99.99
75022;SHT31;63583;49.976;20.182;2022-12-05T04:00:14;0.16;99.99
75022;SHT31;63583;49.976;20.182;2022-12-05T04:03:04;0.22;99.99
75022;SHT31;63583;49.976;20.182;2022-12-05T04:05:45;0.29;99.99
75022;SHT31;63583;49.976;20.182;2022-12-05T04:10:43;0.33;99.99
75022;SHT31;63583;49.976;20.182;2022-12-05T04:13:29;0.48;99.99
75022;SHT31;63583;49.976;20.182;2022-12-05T04:16:00;0.42;99.98
75022;SHT31;63583;49.976;20.182;2022-12-05T04:19:23;0.43;99.99
75022;SHT31;63583;49.976;20.182;2022-12-05T04:21:53;0.43;99.99
75022;SHT31;63583;49.976;20.182;2022-12-05T04:24:29;0.39;99.92
75022;SHT31;63583;49.976;20.182;2022-12-05T04:32:30;0.55;99.68
75022;SHT31;63583;49.976;20.182;2022-12-05T04:35:03;0.53;99.70
75022;SHT31;63583;49.976;20.182;2022-12-05T04:37:32;0.49;99.50
75022;SHT31;63583;49.976;20.182;2022-12-05T04:40:08;0.50;99.60
75022;SHT31;63583;49.976;20.182;2022-12-05T04:42:37;0.59;99.48
75022;SHT31;63583;49.976;20.182;2022-12-05T04:45:09;0.53;99.51
75022;SHT31;63583;49.976;20.182;2022-12-05T04:47:42;0.67;99.35
75022;SHT31;63583;49.976;20.182;2022-12-05T04:50:11;0.60;99.09
75022;SHT31;63583;49.976;20.182;2022-12-05T04:52:39;0.62;99.33
75022;SHT31;63583;49.976;20.182;2022-12-05T04:55:11;0.69;99.37
75022;SHT31;63583;49.976;20.182;2022-12-05T04:57:56;0.67;99.26
75022;SHT31;63583;49.976;20.182;2022-12-05T05:00:26;0.81;99.24
75022;SHT31;63583;49.976;20.182;2022-12-05T05:05:22;0.73;98.99
75022;SHT31;63583;49.976;20.182;2022-12-05T05:07:51;0.79;99.03
75022;SHT31;63583;49.976;20.182;2022-12-05T05:10:31;0.79;98.84
75022;SHT31;63583;49.976;20.182;2022-12-05T05:12:57;0.76;98.82
75022;SHT31;63583;49.976;20.182;2022-12-05T05:15:23;0.67;98.88
75022;SHT31;63583;49.976;20.182;2022-12-05T05:17:49;0.70;99.09
75022;SHT31;63583;49.976;20.182;2022-12-05T05:20:15;0.70;99.05
75022;SHT31;63583;49.976;20.182;2022-12-05T05:22:54;0.66;99.23
75022;SHT31;63583;49.976;20.182;2022-12-05T05:25:21;0.59;99.48
75022;SHT31;63583;49.976;20.182;2022-12-05T05:27:52;0.62;99.48
75022;SHT31;63583;49.976;20.182;2022-12-05T05:30:19;0.55;99.56
75022;SHT31;63583;49.976;20.182;2022-12-05T05:32:45;0.52;99.81
75022;SHT31;63583;49.976;20.182;2022-12-05T05:35:11;0.63;99.68
75022;SHT31;63583;49.976;20.182;2022-12-05T05:37:38;0.59;99.52
75022;SHT31;63583;49.976;20.182;2022-12-05T05:40:09;0.50;99.49
75022;SHT31;63583;49.976;20.182;2022-12-05T05:42:35;0.56;99.99
75022;SHT31;63583;49.976;20.182;2022-12-05T05:45:02;0.56;99.99
75022;SHT31;63583;49.976;20.182;2022-12-05T05:47:27;0.57;99.99
75022;SHT31;63583;49.976;20.182;2022-12-05T05:49:53;0.53;99.99
75022;SHT31;63583;49.976;20.182;2022-12-05T05:52:19;0.57;99.99
75022;SHT31;63583;49.976;20.182;2022-12-05T05:54:44;0.52;99.90
75022;SHT31;63583;49.976;20.182;2022-12-05T05:57:10;0.53;99.99
75022;SHT31;63583;49.976;20.182;2022-12-05T05:59:36;0.55;99.99
75022;SHT31;63583;49.976;20.182;2022-12-05T06:02:01;0.53;99.99
75022;SHT31;63583;49.976;20.182;2022-12-05T06:04:27;0.64;99.94
75022;SHT31;63583;49.976;20.182;2022-12-05T06:06:53;0.53;99.48
75022;SHT31;63583;49.976;20.182;2022-12-05T06:09:19;0.57;99.49
75022;SHT31;63583;49.976;20.182;2022-12-05T06:11:44;0.46;99.47
75022;SHT31;63583;49.976;20.182;2022-12-05T06:14:10;0.43;99.84
75022;SHT31;63583;49.976;20.182;2022-12-05T06:16:36;0.48;99.78
75022;SHT31;63583;49.976;20.182;2022-12-05T06:19:02;0.43;99.81
75022;SHT31;63583;49.976;20.182;2022-12-05T06:21:27;0.45;99.99
75022;SHT31;63583;49.976;20.182;2022-12-05T06:23:53;0.59;99.99
75022;SHT31;63583;49.976;20.182;2022-12-05T06:26:39;0.60;99.88
75022;SHT31;63583;49.976;20.182;2022-12-05T06:29:05;0.52;99.88
75022;SHT31;63583;49.976;20.182;2022-12-05T06:31:31;0.60;99.68
75022;SHT31;63583;49.976;20.182;2022-12-05T06:34:02;0.43;99.76
75022;SHT31;63583;49.976;20.182;2022-12-05T06:36:29;0.49;99.99
75022;SHT31;63583;49.976;20.182;2022-12-05T06:38:59;0.50;99.98
75022;SHT31;63583;49.976;20.182;2022-12-05T06:41:24;0.48;99.98
75022;SHT31;63583;49.976;20.182;2022-12-05T06:43:52;0.49;99.99
75022;SHT31;63583;49.976;20.182;2022-12-05T06:46:19;0.55;99.99
75022;SHT31;63583;49.976;20.182;2022-12-05T06:48:45;0.53;99.99
75022;SHT31;63583;49.976;20.182;2022-12-05T06:51:13;0.53;99.99
75022;SHT31;63583;49.976;20.182;2022-12-05T06:53:40;0.60;99.98
75022;SHT31;63583;49.976;20.182;2022-12-05T06:56:17;0.60;99.88
75022;SHT31;63583;49.976;20.182;2022-12-05T06:58:46;0.63;99.75
75022;SHT31;63583;49.976;20.182;2022-12-05T07:01:14;0.60;99.86
75022;SHT31;63583;49.976;20.182;2022-12-05T07:03:59;0.63;99.63
75022;SHT31;63583;49.976;20.182;2022-12-05T07:06:26;0.62;99.76
75022;SHT31;63583;49.976;20.182;2022-12-05T07:08:52;0.63;99.85
75022;SHT31;63583;49.976;20.182;2022-12-05T07:11:18;0.66;99.96
75022;SHT31;63583;49.976;20.182;2022-12-05T07:13:45;0.76;99.99
75022;SHT31;63583;49.976;20.182;2022-12-05T07:16:10;0.73;99.74
75022;SHT31;63583;49.976;20.182;2022-12-05T07:18:36;0.64;99.85
75022;SHT31;63583;49.976;20.182;2022-12-05T07:21:04;0.70;99.87
75022;SHT31;63583;49.976;20.182;2022-12-05T07:23:30;0.73;99.93
75022;SHT31;63583;49.976;20.182;2022-12-05T07:25:56;0.70;99.90
75022;SHT31;63583;49.976;20.182;2022-12-05T07:28:23;0.72;99.99
75022;SHT31;63583;49.976;20.182;2022-12-05T07:30:58;0.70;99.61
75022;SHT31;63583;49.976;20.182;2022-12-05T07:33:24;0.84;99.52
75022;SHT31;63583;49.976;20.182;2022-12-05T07:35:50;0.84;99.60
75022;SHT31;63583;49.976;20.182;2022-12-05T07:38:16;0.97;99.37
75022;SHT31;63583;49.976;20.182;2022-12-05T07:40:41;0.84;99.19
75022;SHT31;63583;49.976;20.182;2022-12-05T07:43:07;0.79;99.33
75022;SHT31;63583;49.976;20.182;2022-12-05T07:45:33;0.80;99.39
75022;SHT31;63583;49.976;20.182;2022-12-05T07:48:00;0.77;99.71
75022;SHT31;63583;49.976;20.182;2022-12-05T07:50:26;0.81;99.99
75022;SHT31;63583;49.976;20.182;2022-12-05T07:52:52;0.88;99.99
75022;SHT31;63583;49.976;20.182;2022-12-05T07:55:17;0.91;99.99
75022;SHT31;63583;49.976;20.182;2022-12-05T07:57:43;0.98;99.99
75022;SHT31;63583;49.976;20.182;2022-12-05T08:00:09;1.00;99.94
75022;SHT31;63583;49.976;20.182;2022-12-05T08:02:35;0.94;99.88
75022;SHT31;63583;49.976;20.182;2022-12-05T08:05:01;1.04;99.71
75022;SHT31;63583;49.976;20.182;2022-12-05T08:07:27;1.05;99.49
75022;SHT31;63583;49.976;20.182;2022-12-05T08:09:53;1.08;99.42
75022;SHT31;63583;49.976;20.182;2022-12-05T08:12:18;0.95;99.27
75022;SHT31;63583;49.976;20.182;2022-12-05T08:14:44;1.04;99.33
75022;SHT31;63583;49.976;20.182;2022-12-05T08:17:10;1.03;99.11
75022;SHT31;63583;49.976;20.182;2022-12-05T08:19:36;1.00;99.06
75022;SHT31;63583;49.976;20.182;2022-12-05T08:22:02;1.18;99.60
75022;SHT31;63583;49.976;20.182;2022-12-05T08:24:27;1.21;99.60
75022;SHT31;63583;49.976;20.182;2022-12-05T08:26:53;1.21;98.87
75022;SHT31;63583;49.976;20.182;2022-12-05T08:29:20;1.28;99.29
75022;SHT31;63583;49.976;20.182;2022-12-05T08:31:48;1.43;99.23
75022;SHT31;63583;49.976;20.182;2022-12-05T08:34:16;1.39;98.72
75022;SHT31;63583;49.976;20.182;2022-12-05T08:36:42;1.32;98.29
75022;SHT31;63583;49.976;20.182;2022-12-05T08:39:11;1.30;98.01
75022;SHT31;63583;49.976;20.182;2022-12-05T08:41:39;1.22;97.63
75022;SHT31;63583;49.976;20.182;2022-12-05T08:44:05;1.24;97.52
75022;SHT31;63583;49.976;20.182;2022-12-05T08:46:34;1.22;98.53
75022;SHT31;63583;49.976;20.182;2022-12-05T08:49:01;1.24;98.00
75022;SHT31;63583;49.976;20.182;2022-12-05T08:51:30;1.27;98.09
75022;SHT31;63583;49.976;20.182;2022-12-05T08:53:56;1.35;97.82
75022;SHT31;63583;49.976;20.182;2022-12-05T08:56:22;1.45;97.97
75022;SHT31;63583;49.976;20.182;2022-12-05T08:58:48;1.45;97.54
75022;SHT31;63583;49.976;20.182;2022-12-05T09:01:17;1.43;97.55
75022;SHT31;63583;49.976;20.182;2022-12-05T09:03:44;1.41;97.80
75022;SHT31;63583;49.976;20.182;2022-12-05T09:06:23;1.45;98.19
75022;SHT31;63583;49.976;20.182;2022-12-05T09:09:04;1.53;97.36
75022;SHT31;63583;49.976;20.182;2022-12-05T09:11:33;1.56;97.65
75022;SHT31;63583;49.976;20.182;2022-12-05T09:13:59;1.89;97.23
75022;SHT31;63583;49.976;20.182;2022-12-05T09:16:31;1.76;97.10
75022;SHT31;63583;49.976;20.182;2022-12-05T09:18:57;1.89;96.55
75022;SHT31;63583;49.976;20.182;2022-12-05T09:21:26;1.80;96.96
75022;SHT31;63583;49.976;20.182;2022-12-05T09:23:52;1.93;96.35
75022;SHT31;63583;49.976;20.182;2022-12-05T09:26:21;1.94;95.82
75022;SHT31;63583;49.976;20.182;2022-12-05T09:28:48;2.22;95.67
75022;SHT31;63583;49.976;20.182;2022-12-05T09:31:17;2.37;95.05
75022;SHT31;63583;49.976;20.182;2022-12-05T09:33:43;2.32;93.84
75022;SHT31;63583;49.976;20.182;2022-12-05T09:36:16;2.32;93.70
75022;SHT31;63583;49.976;20.182;2022-12-05T09:38:42;2.13;94.55
75022;SHT31;63583;49.976;20.182;2022-12-05T09:46:56;2.35;94.45
75022;SHT31;63583;49.976;20.182;2022-12-05T09:49:23;2.28;94.68
75022;SHT31;63583;49.976;20.182;2022-12-05T09:51:52;2.58;94.42
75022;SHT31;63583;49.976;20.182;2022-12-05T09:56:47;2.82;93.54
75022;SHT31;63583;49.976;20.182;2022-12-05T09:59:14;2.79;92.55
75022;SHT31;63583;49.976;20.182;2022-12-05T10:07:16;2.56;94.76
75022;SHT31;63583;49.976;20.182;2022-12-05T10:10:19;2.82;93.35
75022;SHT31;63583;49.976;20.182;2022-12-05T10:13:07;2.67;93.94
75022;SHT31;63583;49.976;20.182;2022-12-05T10:15:45;2.86;94.21
75022;SHT31;63583;49.976;20.182;2022-12-05T10:18:24;2.99;93.87
75022;SHT31;63583;49.976;20.182;2022-12-05T10:21:15;3.03;94.31
75022;SHT31;63583;49.976;20.182;2022-12-05T10:26:15;3.39;93.00
75022;SHT31;63583;49.976;20.182;2022-12-05T10:31:16;3.28;93.40
75022;SHT31;63583;49.976;20.182;2022-12-05T10:33:48;3.41;92.70
75022;SHT31;63583;49.976;20.182;2022-12-05T10:36:16;3.27;92.59
75022;SHT31;63583;49.976;20.182;2022-12-05T10:38:43;3.07;94.28
75022;SHT31;63583;49.976;20.182;2022-12-05T10:41:11;3.13;93.87
75022;SHT31;63583;49.976;20.182;2022-12-05T10:43:43;3.23;93.25
75022;SHT31;63583;49.976;20.182;2022-12-05T10:46:10;3.15;92.93
75022;SHT31;63583;49.976;20.182;2022-12-05T10:48:39;3.04;94.30
75022;SHT31;63583;49.976;20.182;2022-12-05T10:51:06;3.03;93.68
75022;SHT31;63583;49.976;20.182;2022-12-05T10:55:58;3.27;93.61
75022;SHT31;63583;49.976;20.182;2022-12-05T10:58:27;3.38;93.63
75022;SHT31;63583;49.976;20.182;2022-12-05T11:00:56;3.51;93.53
75022;SHT31;63583;49.976;20.182;2022-12-05T11:03:31;3.59;92.77
75022;SHT31;63583;49.976;20.182;2022-12-05T11:06:22;3.75;92.74
75022;SHT31;63583;49.976;20.182;2022-12-05T11:08:53;3.85;92.40
75022;SHT31;63583;49.976;20.182;2022-12-05T11:11:26;3.97;91.96
75022;SHT31;63583;49.976;20.182;2022-12-05T11:16:32;4.01;91.76
75022;SHT31;63583;49.976;20.182;2022-12-05T11:19:21;4.11;91.81
75022;SHT31;63583;49.976;20.182;2022-12-05T11:21:50;4.21;91.34
75022;SHT31;63583;49.976;20.182;2022-12-05T11:26:48;4.42;91.05
75022;SHT31;63583;49.976;20.182;2022-12-05T11:29:34;4.58;90.84
75022;SHT31;63583;49.976;20.182;2022-12-05T11:32:05;4.64;90.41
75022;SHT31;63583;49.976;20.182;2022-12-05T11:34:37;4.69;89.47
75022;SHT31;63583;49.976;20.182;2022-12-05T11:37:14;4.69;90.05
75022;SHT31;63583;49.976;20.182;2022-12-05T11:39:42;4.76;89.89
75022;SHT31;63583;49.976;20.182;2022-12-05T11:42:45;4.86;90.06
75022;SHT31;63583;49.976;20.182;2022-12-05T11:50:32;4.97;89.41
75022;SHT31;63583;49.976;20.182;2022-12-05T11:56:19;5.16;89.43
75022;SHT31;63583;49.976;20.182;2022-12-05T11:59:12;5.12;89.41
75022;SHT31;63583;49.976;20.182;2022-12-05T12:04:46;5.31;89.01
75022;SHT31;63583;49.976;20.182;2022-12-05T12:15:23;5.35;87.79
75022;SHT31;63583;49.976;20.182;2022-12-05T12:28:31;5.76;88.44
75022;SHT31;63583;49.976;20.182;2022-12-05T12:33:36;5.91;88.48
75022;SHT31;63583;49.976;20.182;2022-12-05T12:36:25;5.88;88.44
75022;SHT31;63583;49.976;20.182;2022-12-05T12:38:56;6.12;87.94
75022;SHT31;63583;49.976;20.182;2022-12-05T12:50:14;6.51;86.20
75022;SHT31;63583;49.976;20.182;2022-12-05T13:06:25;6.60;87.28
75022;SHT31;63583;49.976;20.182;2022-12-05T13:09:08;6.64;86.95
75022;SHT31;63583;49.976;20.182;2022-12-05T13:11:38;6.65;86.89
75022;SHT31;63583;49.976;20.182;2022-12-05T13:14:11;6.57;87.65
75022;SHT31;63583;49.976;20.182;2022-12-05T13:16:41;6.68;86.74
75022;SHT31;63583;49.976;20.182;2022-12-05T13:22:18;6.60;87.20
75022;SHT31;63583;49.976;20.182;2022-12-05T13:24:45;6.51;87.38
75022;SHT31;63583;49.976;20.182;2022-12-05T13:27:18;6.42;87.50
75022;SHT31;63583;49.976;20.182;2022-12-05T13:29:57;6.57;86.73
75022;SHT31;63583;49.976;20.182;2022-12-05T13:32:32;6.48;87.14
75022;SHT31;63583;49.976;20.182;2022-12-05T13:34:59;6.47;86.75
75022;SHT31;63583;49.976;20.182;2022-12-05T13:37:28;6.40;87.39
75022;SHT31;63583;49.976;20.182;2022-12-05T13:40:28;6.26;87.52
75022;SHT31;63583;49.976;20.182;2022-12-05T13:43:19;6.14;88.03
75022;SHT31;63583;49.976;20.182;2022-12-05T13:46:10;6.10;88.42
75022;SHT31;63583;49.976;20.182;2022-12-05T13:48:41;6.19;87.97
75022;SHT31;63583;49.976;20.182;2022-12-05T13:51:21;6.26;87.95
75022;SHT31;63583;49.976;20.182;2022-12-05T13:53:58;6.19;88.06
75022;SHT31;63583;49.976;20.182;2022-12-05T13:56:28;6.06;88.38
75022;SHT31;63583;49.976;20.182;2022-12-05T13:59:10;6.07;88.59
75022;SHT31;63583;49.976;20.182;2022-12-05T14:01:47;6.03;88.52
75022;SHT31;63583;49.976;20.182;2022-12-05T14:04:39;5.83;89.26
75022;SHT31;63583;49.976;20.182;2022-12-05T14:07:08;5.75;89.60
75022;SHT31;63583;49.976;20.182;2022-12-05T14:09:53;5.64;89.91
75022;SHT31;63583;49.976;20.182;2022-12-05T14:17:21;5.78;89.15
75022;SHT31;63583;49.976;20.182;2022-12-05T14:25:41;5.83;88.39
75022;SHT31;63583;49.976;20.182;2022-12-05T14:28:35;5.71;88.90
75022;SHT31;63583;49.976;20.182;2022-12-05T14:31:18;5.62;89.28
75022;SHT31;63583;49.976;20.182;2022-12-05T14:34:14;5.54;89.63
75022;SHT31;63583;49.976;20.182;2022-12-05T14:36:54;5.44;89.79
75022;SHT31;63583;49.976;20.182;2022-12-05T14:39:33;5.38;90.20
75022;SHT31;63583;49.976;20.182;2022-12-05T14:42:02;5.33;90.14
75022;SHT31;63583;49.976;20.182;2022-12-05T14:44:29;5.26;90.34
75022;SHT31;63583;49.976;20.182;2022-12-05T14:46:59;5.22;90.45
75022;SHT31;63583;49.976;20.182;2022-12-05T14:49:53;5.17;90.80
75022;SHT31;63583;49.976;20.182;2022-12-05T14:52:22;5.16;90.78
75022;SHT31;63583;49.976;20.182;2022-12-05T14:54:53;5.12;91.06
75022;SHT31;63583;49.976;20.182;2022-12-05T14:57:20;5.03;91.24
75022;SHT31;63583;49.976;20.182;2022-12-05T14:59:55;4.99;91.37
75022;SHT31;63583;49.976;20.182;2022-12-05T15:02:28;4.99;91.38
75022;SHT31;63583;49.976;20.182;2022-12-05T15:07:44;4.89;91.67
75022;SHT31;63583;49.976;20.182;2022-12-05T15:10:36;4.85;91.84
75022;SHT31;63583;49.976;20.182;2022-12-05T15:13:15;4.82;91.93
75022;SHT31;63583;49.976;20.182;2022-12-05T15:15:53;4.76;91.94
75022;SHT31;63583;49.976;20.182;2022-12-05T15:18:26;4.79;91.85
75022;SHT31;63583;49.976;20.182;2022-12-05T15:20:56;4.80;92.24
75022;SHT31;63583;49.976;20.182;2022-12-05T15:23:59;4.78;92.55
75022;SHT31;63583;49.976;20.182;2022-12-05T15:27:17;4.75;92.58
75022;SHT31;63583;49.976;20.182;2022-12-05T15:32:02;4.68;92.84
75022;SHT31;63583;49.976;20.182;2022-12-05T15:40:11;4.76;92.80
75022;SHT31;63583;49.976;20.182;2022-12-05T15:42:50;4.79;92.45
75022;SHT31;63583;49.976;20.182;2022-12-05T15:45:18;4.83;92.52
75022;SHT31;63583;49.976;20.182;2022-12-05T15:47:50;4.89;92.56
75022;SHT31;63583;49.976;20.182;2022-12-05T15:50:41;4.86;92.67
75022;SHT31;63583;49.976;20.182;2022-12-05T15:56:06;4.57;93.32
75022;SHT31;63583;49.976;20.182;2022-12-05T15:58:35;4.51;93.22
75022;SHT31;63583;49.976;20.182;2022-12-05T16:01:05;4.44;93.10
75022;SHT31;63583;49.976;20.182;2022-12-05T16:06:24;4.61;93.87
75022;SHT31;63583;49.976;20.182;2022-12-05T16:08:51;4.59;93.86
75022;SHT31;63583;49.976;20.182;2022-12-05T16:11:18;4.55;93.65
75022;SHT31;63583;49.976;20.182;2022-12-05T16:13:47;4.52;93.92
75022;SHT31;63583;49.976;20.182;2022-12-05T16:16:18;4.61;94.23
75022;SHT31;63583;49.976;20.182;2022-12-05T16:18:55;4.62;94.08
75022;SHT31;63583;49.976;20.182;2022-12-05T16:21:38;4.69;94.26
75022;SHT31;63583;49.976;20.182;2022-12-05T16:24:25;4.76;93.43
75022;SHT31;63583;49.976;20.182;2022-12-05T16:27:22;4.86;93.31
75022;SHT31;63583;49.976;20.182;2022-12-05T16:32:39;4.64;93.24
75022;SHT31;63583;49.976;20.182;2022-12-05T16:35:31;4.64;93.26
75022;SHT31;63583;49.976;20.182;2022-12-05T16:40:51;4.58;93.15
75022;SHT31;63583;49.976;20.182;2022-12-05T16:45:46;4.59;92.96
75022;SHT31;63583;49.976;20.182;2022-12-05T16:48:21;4.54;93.17
75022;SHT31;63583;49.976;20.182;2022-12-05T16:50:49;4.45;93.74
75022;SHT31;63583;49.976;20.182;2022-12-05T16:53:23;4.45;94.48
75022;SHT31;63583;49.976;20.182;2022-12-05T16:55:51;4.48;95.05
75022;SHT31;63583;49.976;20.182;2022-12-05T16:58:23;4.41;95.17
75022;SHT31;63583;49.976;20.182;2022-12-05T17:00:50;4.37;95.45
75022;SHT31;63583;49.976;20.182;2022-12-05T17:03:17;4.37;95.58
75022;SHT31;63583;49.976;20.182;2022-12-05T17:05:43;4.34;95.96
75022;SHT31;63583;49.976;20.182;2022-12-05T17:08:08;4.38;95.98
75022;SHT31;63583;49.976;20.182;2022-12-05T17:10:34;4.36;96.08
75022;SHT31;63583;49.976;20.182;2022-12-05T17:13:00;4.48;96.18
75022;SHT31;63583;49.976;20.182;2022-12-05T17:15:27;4.62;95.37
75022;SHT31;63583;49.976;20.182;2022-12-05T17:17:53;4.82;94.48
75022;SHT31;63583;49.976;20.182;2022-12-05T17:20:19;4.83;93.62
75022;SHT31;63583;49.976;20.182;2022-12-05T17:22:45;4.86;93.25
75022;SHT31;63583;49.976;20.182;2022-12-05T17:25:32;4.95;92.79
75022;SHT31;63583;49.976;20.182;2022-12-05T17:28:01;4.92;92.74
75022;SHT31;63583;49.976;20.182;2022-12-05T17:30:27;4.85;92.88
75022;SHT31;63583;49.976;20.182;2022-12-05T17:32:53;4.78;93.38
75022;SHT31;63583;49.976;20.182;2022-12-05T17:35:20;4.71;93.66
75022;SHT31;63583;49.976;20.182;2022-12-05T17:37:47;4.73;93.84
75022;SHT31;63583;49.976;20.182;2022-12-05T17:40:13;4.71;93.72
75022;SHT31;63583;49.976;20.182;2022-12-05T17:42:39;4.73;93.61
75022;SHT31;63583;49.976;20.182;2022-12-05T17:45:10;4.78;93.74
75022;SHT31;63583;49.976;20.182;2022-12-05T17:47:36;4.85;93.27
75022;SHT31;63583;49.976;20.182;2022-12-05T17:50:03;4.85;93.09
75022;SHT31;63583;49.976;20.182;2022-12-05T17:52:29;4.90;92.81
75022;SHT31;63583;49.976;20.182;2022-12-05T17:54:55;4.96;92.69
75022;SHT31;63583;49.976;20.182;2022-12-05T17:57:21;4.83;93.09
75022;SHT31;63583;49.976;20.182;2022-12-05T17:59:47;4.69;93.66
75022;SHT31;63583;49.976;20.182;2022-12-05T18:02:13;4.71;93.85
75022;SHT31;63583;49.976;20.182;2022-12-05T18:04:39;4.71;94.05
75022;SHT31;63583;49.976;20.182;2022-12-05T18:07:05;4.68;94.28
75022;SHT31;63583;49.976;20.182;2022-12-05T18:09:31;4.67;94.37
75022;SHT31;63583;49.976;20.182;2022-12-05T18:11:57;4.71;94.42
75022;SHT31;63583;49.976;20.182;2022-12-05T18:14:22;4.67;94.41
75022;SHT31;63583;49.976;20.182;2022-12-05T18:16:48;4.72;94.40
75022;SHT31;63583;49.976;20.182;2022-12-05T18:19:15;4.69;94.44
75022;SHT31;63583;49.976;20.182;2022-12-05T18:21:41;4.67;94.58
75022;SHT31;63583;49.976;20.182;2022-12-05T18:24:06;4.71;94.69
75022;SHT31;63583;49.976;20.182;2022-12-05T18:26:32;4.73;94.53